Time;durP1;ratioP1;P1;durP2;ratioP2;P2;SDS_P1;SDS_P2;PMS_P1;PMS_P2;Temp;Humidity;BMP_temperature;BMP_pressure;BME280_temperature;BME280_humidity;BME280_pressure;Samples;Min_cycle;Max_cycle;Signal;HPM_P1;HPM_P2
2022/11/05 00:09:41;;;;;;;6.90;4.77;;;10.70;99.90;;;;;;5017674;28;20181;-71
2022/11/05 00:17:42;;;;;;;8.60;5.07;;;10.60;99.90;;;;;;5039376;28;20429;-71
2022/11/05 00:20:12;;;;;;;6.60;4.77;;;10.50;99.90;;;;;;5039464;28;20175;-70
2022/11/05 00:25:28;;;;;;;8.47;6.23;;;10.50;99.90;;;;;;5022872;28;20186;-71
2022/11/05 00:28:01;;;;;;;7.33;6.37;;;10.50;99.90;;;;;;5030104;28;20178;-72
2022/11/05 00:30:29;;;;;;;9.13;6.60;;;10.50;99.90;;;;;;5024285;28;20175;-71
2022/11/05 00:33:01;;;;;;;9.43;6.30;;;10.50;99.90;;;;;;5023242;28;20198;-71
2022/11/05 00:35:27;;;;;;;8.17;6.60;;;10.50;99.90;;;;;;5035326;28;20201;-71
2022/11/05 00:37:53;;;;;;;10.63;6.97;;;10.60;99.90;;;;;;5023655;28;20182;-70
2022/11/05 00:40:18;;;;;;;9.33;6.80;;;10.50;99.90;;;;;;5030438;28;20209;-69
2022/11/05 00:45:32;;;;;;;8.57;6.70;;;10.60;99.90;;;;;;5030171;28;20181;-71
2022/11/05 00:50:44;;;;;;;9.57;6.83;;;10.60;99.90;;;;;;5030389;28;20182;-71
2022/11/05 00:53:12;;;;;;;9.40;6.70;;;10.50;99.90;;;;;;5028868;28;20420;-71
2022/11/05 00:55:40;;;;;;;9.07;7.30;;;10.60;99.90;;;;;;5062404;28;20280;-71
2022/11/05 00:58:14;;;;;;;11.37;7.13;;;10.50;99.90;;;;;;5032126;28;20196;-71
2022/11/05 01:00:49;;;;;;;10.47;6.87;;;10.60;99.90;;;;;;5036129;28;20218;-70
2022/11/05 01:03:16;;;;;;;11.13;8.00;;;10.50;99.90;;;;;;5032646;28;20202;-71
2022/11/05 01:05:46;;;;;;;13.83;7.90;;;10.50;99.90;;;;;;5039889;28;20162;-71
2022/11/05 01:08:15;;;;;;;12.27;7.50;;;10.50;99.90;;;;;;5061228;28;20260;-70
2022/11/05 01:10:47;;;;;;;10.93;7.77;;;10.50;99.90;;;;;;5051663;28;20194;-71
2022/11/05 01:13:16;;;;;;;11.53;7.40;;;10.50;99.90;;;;;;5055550;28;20253;-71
2022/11/05 01:15:45;;;;;;;9.83;7.20;;;10.40;99.90;;;;;;5034958;28;20217;-70
2022/11/05 01:18:10;;;;;;;10.20;7.50;;;10.40;99.90;;;;;;5066211;28;20191;-71
2022/11/05 01:20:36;;;;;;;9.37;6.87;;;10.40;99.90;;;;;;5024155;28;20174;-71
2022/11/05 01:23:02;;;;;;;9.83;7.23;;;10.40;99.90;;;;;;5042666;28;20260;-71
2022/11/05 01:25:30;;;;;;;8.63;6.40;;;10.30;99.90;;;;;;5024770;28;20197;-71
2022/11/05 01:28:02;;;;;;;9.27;6.80;;;10.30;99.90;;;;;;5041279;28;20186;-71
2022/11/05 01:30:30;;;;;;;8.03;6.13;;;10.30;99.90;;;;;;5033893;28;20281;-69
2022/11/05 01:32:58;;;;;;;9.00;6.87;;;10.20;99.90;;;;;;5025310;28;20236;-70
2022/11/05 01:35:24;;;;;;;7.67;6.10;;;10.30;99.90;;;;;;5030232;28;20273;-71
2022/11/05 01:37:49;;;;;;;8.33;6.70;;;10.30;99.90;;;;;;5044190;28;20232;-70
2022/11/05 01:40:18;;;;;;;8.23;6.70;;;10.20;99.90;;;;;;5053619;28;20189;-69
2022/11/05 01:42:44;;;;;;;7.80;6.50;;;10.20;99.90;;;;;;5033210;28;20202;-70
2022/11/05 01:45:13;;;;;;;9.07;6.50;;;10.10;99.90;;;;;;5050379;28;20269;-70
2022/11/05 01:47:44;;;;;;;9.83;6.93;;;10.10;99.90;;;;;;5034923;28;20249;-70
2022/11/05 01:50:47;;;;;;;9.67;6.60;;;10.10;99.90;;;;;;5042592;28;20190;-71
2022/11/05 01:53:28;;;;;;;7.23;5.87;;;10.00;99.90;;;;;;5033467;28;20185;-71
2022/11/05 01:56:16;;;;;;;10.90;6.80;;;10.00;99.90;;;;;;5026241;28;20186;-70
2022/11/05 01:58:45;;;;;;;10.40;7.00;;;10.00;99.90;;;;;;5053650;28;20201;-70
2022/11/05 02:01:11;;;;;;;8.30;6.57;;;9.90;99.90;;;;;;5057232;28;20195;-71
2022/11/05 02:03:40;;;;;;;10.03;6.83;;;9.90;99.90;;;;;;5046894;28;20182;-71
2022/11/05 02:06:08;;;;;;;9.13;6.90;;;9.80;99.90;;;;;;5045856;28;20189;-70
2022/11/05 02:08:42;;;;;;;9.57;7.03;;;9.80;99.90;;;;;;5022705;28;20231;-70
2022/11/05 02:11:10;;;;;;;8.53;6.53;;;9.80;99.90;;;;;;5045857;28;20200;-70
2022/11/05 02:13:36;;;;;;;10.00;7.00;;;9.80;99.90;;;;;;5056622;28;20827;-70
2022/11/05 02:16:32;;;;;;;11.03;7.40;;;9.70;99.90;;;;;;5028487;28;20188;-71
2022/11/05 02:19:16;;;;;;;9.40;6.83;;;9.70;99.90;;;;;;5003460;28;20202;-70
2022/11/05 02:21:42;;;;;;;9.13;6.97;;;9.70;99.90;;;;;;5040379;28;20212;-70
2022/11/05 02:24:33;;;;;;;9.83;7.57;;;9.70;99.90;;;;;;5065114;28;20174;-70
2022/11/05 02:27:17;;;;;;;9.47;6.73;;;9.60;99.90;;;;;;5020926;28;20267;-70
2022/11/05 02:29:55;;;;;;;11.57;7.07;;;9.60;99.90;;;;;;5033067;28;20179;-71
2022/11/05 02:32:20;;;;;;;9.17;6.80;;;9.60;99.90;;;;;;5047256;28;20189;-72
2022/11/05 02:35:01;;;;;;;9.27;7.03;;;9.60;99.90;;;;;;5055004;28;20189;-70
2022/11/05 02:37:26;;;;;;;9.33;6.97;;;9.50;99.90;;;;;;5046362;28;20244;-69
2022/11/05 02:40:00;;;;;;;8.13;6.60;;;9.50;99.90;;;;;;5030868;28;20241;-70
2022/11/05 02:42:33;;;;;;;12.30;7.23;;;9.50;99.90;;;;;;5029861;28;20197;-70
2022/11/05 02:45:10;;;;;;;9.90;7.00;;;9.50;99.90;;;;;;5041126;28;22572;-70
2022/11/05 02:47:45;;;;;;;10.73;7.40;;;9.50;99.90;;;;;;5035018;28;20256;-70
2022/11/05 02:50:56;;;;;;;8.70;6.83;;;9.50;99.90;;;;;;5046426;28;20177;-70
2022/11/05 02:53:44;;;;;;;10.33;7.10;;;9.60;99.90;;;;;;5061274;28;20542;-70
2022/11/05 02:56:21;;;;;;;10.17;7.27;;;9.60;99.90;;;;;;5044072;28;20179;-70
2022/11/05 02:58:46;;;;;;;8.90;7.43;;;9.60;99.90;;;;;;5053412;28;20330;-70
2022/11/05 03:01:15;;;;;;;9.23;7.13;;;9.60;99.90;;;;;;5047836;28;20214;-70
2022/11/05 03:03:51;;;;;;;9.03;7.13;;;9.60;99.90;;;;;;5049525;28;20241;-70
2022/11/05 03:06:34;;;;;;;9.33;7.37;;;9.60;99.90;;;;;;5036539;28;20208;-70
2022/11/05 03:09:33;;;;;;;9.07;7.43;;;9.60;99.90;;;;;;5026443;28;20198;-70
2022/11/05 03:12:09;;;;;;;9.47;7.40;;;9.60;99.90;;;;;;5034656;28;20186;-69
2022/11/05 03:14:53;;;;;;;9.70;7.07;;;9.60;99.90;;;;;;5031736;28;20218;-70
2022/11/05 03:17:37;;;;;;;9.03;6.80;;;9.60;99.90;;;;;;5024670;28;20205;-70
2022/11/05 03:20:24;;;;;;;8.73;6.80;;;9.60;99.90;;;;;;5057246;28;20217;-70
2022/11/05 03:22:57;;;;;;;9.17;6.97;;;9.60;99.90;;;;;;5034585;28;20217;-69
2022/11/05 03:25:24;;;;;;;11.70;7.63;;;9.60;99.90;;;;;;5030824;28;20179;-70
2022/11/05 03:27:57;;;;;;;9.93;7.47;;;9.60;99.90;;;;;;5039067;28;20209;-70
2022/11/05 03:30:26;;;;;;;9.50;7.13;;;9.70;99.90;;;;;;5049218;28;20208;-70
2022/11/05 03:33:01;;;;;;;8.77;6.90;;;9.60;99.90;;;;;;5044580;28;20245;-70
2022/11/05 03:35:33;;;;;;;9.60;7.07;;;9.60;99.90;;;;;;5037785;28;20192;-71
2022/11/05 03:38:09;;;;;;;9.93;7.57;;;9.60;99.90;;;;;;5043367;28;20246;-70
2022/11/05 03:40:37;;;;;;;9.70;7.47;;;9.70;99.90;;;;;;5066497;28;20210;-70
2022/11/05 03:43:06;;;;;;;9.80;7.63;;;9.70;99.90;;;;;;5051991;28;20309;-70
2022/11/05 03:45:41;;;;;;;13.70;8.43;;;9.70;99.90;;;;;;5025829;28;20344;-70
2022/11/05 03:48:09;;;;;;;10.03;8.23;;;9.70;99.90;;;;;;5017677;28;20267;-71
2022/11/05 03:50:47;;;;;;;11.13;8.47;;;9.70;99.90;;;;;;5042237;28;20268;-70
2022/11/05 03:53:24;;;;;;;12.20;7.93;;;9.70;99.90;;;;;;5053335;28;20185;-70
2022/11/05 03:56:08;;;;;;;10.10;7.57;;;9.70;99.90;;;;;;5057910;28;20238;-70
2022/11/05 03:58:35;;;;;;;9.73;7.30;;;9.70;99.90;;;;;;5064658;28;20209;-71
2022/11/05 04:01:02;;;;;;;10.30;8.17;;;9.80;99.90;;;;;;5024212;28;20378;-70
2022/11/05 04:03:34;;;;;;;9.53;7.67;;;9.70;99.90;;;;;;5044624;28;20239;-71
2022/11/05 04:14:13;;;;;;;11.00;8.20;;;9.80;99.90;;;;;;5037075;28;20200;-70
2022/11/05 04:24:54;;;;;;;8.43;7.07;;;9.80;99.90;;;;;;5040543;28;20196;-71
2022/11/05 04:27:19;;;;;;;9.63;8.03;;;9.80;99.90;;;;;;5027293;28;20170;-71
2022/11/05 04:32:31;;;;;;;8.77;7.13;;;9.70;99.90;;;;;;5022489;28;20268;-71
2022/11/05 04:34:59;;;;;;;10.17;7.27;;;9.70;99.90;;;;;;5036753;28;20174;-71
2022/11/05 04:37:27;;;;;;;8.77;6.93;;;9.60;99.90;;;;;;5038247;28;20229;-74
2022/11/05 04:39:53;;;;;;;9.37;7.50;;;9.60;99.90;;;;;;5057439;28;20201;-73
2022/11/05 04:42:18;;;;;;;9.40;7.50;;;9.60;99.90;;;;;;5036528;28;20302;-74
2022/11/05 04:44:46;;;;;;;10.20;7.43;;;9.50;99.90;;;;;;5036517;28;20179;-74
2022/11/05 04:47:12;;;;;;;10.10;8.03;;;9.50;99.90;;;;;;5018264;28;20167;-73
2022/11/05 04:49:42;;;;;;;9.77;7.30;;;9.50;99.90;;;;;;5038452;28;20188;-74
2022/11/05 04:52:07;;;;;;;11.30;7.30;;;9.50;99.90;;;;;;5036676;28;20182;-74
2022/11/05 04:54:33;;;;;;;8.93;7.10;;;9.40;99.90;;;;;;5054131;28;20351;-73
2022/11/05 04:57:03;;;;;;;8.23;7.20;;;9.30;99.90;;;;;;5057264;28;20220;-72
2022/11/05 04:59:29;;;;;;;10.43;7.43;;;9.30;99.90;;;;;;5055355;28;20198;-73
2022/11/05 05:01:57;;;;;;;9.97;7.90;;;9.30;99.90;;;;;;5049213;28;20297;-73
2022/11/05 05:04:25;;;;;;;10.37;7.70;;;9.30;99.90;;;;;;5038253;28;20178;-74
2022/11/05 05:06:53;;;;;;;11.83;7.90;;;9.30;99.90;;;;;;5035914;28;20194;-74
2022/11/05 05:09:19;;;;;;;9.13;7.50;;;9.30;99.90;;;;;;5057875;28;20220;-75
2022/11/05 05:11:44;;;;;;;11.53;7.87;;;9.30;99.90;;;;;;5038104;28;20332;-74
2022/11/05 05:14:12;;;;;;;8.83;6.93;;;9.30;99.90;;;;;;5033014;28;20222;-74
2022/11/05 05:16:40;;;;;;;10.07;7.17;;;9.20;99.90;;;;;;5032220;28;20195;-74
2022/11/05 05:19:06;;;;;;;9.23;7.40;;;9.20;99.90;;;;;;5028288;28;20248;-74
2022/11/05 05:21:37;;;;;;;10.17;7.60;;;9.20;99.90;;;;;;5025150;28;20201;-74
2022/11/05 05:24:09;;;;;;;11.30;7.27;;;9.20;99.90;;;;;;5030369;28;20274;-74
2022/11/05 05:26:41;;;;;;;12.13;7.67;;;9.10;99.90;;;;;;5055758;28;20224;-74
2022/11/05 05:29:07;;;;;;;10.00;7.60;;;9.10;99.90;;;;;;5038348;28;20265;-74
2022/11/05 05:31:36;;;;;;;9.23;6.83;;;9.00;99.90;;;;;;5038285;28;20224;-74
2022/11/05 05:34:02;;;;;;;9.00;7.33;;;9.00;99.90;;;;;;5045005;28;20188;-75
2022/11/05 05:36:28;;;;;;;9.70;7.27;;;9.00;99.90;;;;;;5063513;28;20174;-74
2022/11/05 05:38:53;;;;;;;9.70;6.83;;;8.90;99.90;;;;;;5030001;28;20390;-74
2022/11/05 05:41:19;;;;;;;8.73;6.53;;;8.90;99.90;;;;;;5026464;28;20265;-74
2022/11/05 05:43:45;;;;;;;9.33;7.40;;;8.90;99.90;;;;;;5026640;28;20171;-74
2022/11/05 05:46:15;;;;;;;10.23;7.43;;;8.90;99.90;;;;;;5030104;28;20204;-74
2022/11/05 05:48:41;;;;;;;10.33;7.33;;;8.80;99.90;;;;;;5040233;28;20178;-74
2022/11/05 05:51:09;;;;;;;9.00;6.67;;;8.80;99.90;;;;;;5044393;28;20173;-74
2022/11/05 05:53:38;;;;;;;10.30;7.57;;;8.80;99.90;;;;;;5037523;28;20195;-74
2022/11/05 05:56:04;;;;;;;10.60;7.50;;;8.80;99.90;;;;;;5032219;28;20173;-74
2022/11/05 05:58:34;;;;;;;11.37;7.23;;;8.70;99.90;;;;;;5054846;28;20185;-74
2022/11/05 06:01:10;;;;;;;8.43;6.90;;;8.70;99.90;;;;;;5034306;28;20170;-75
2022/11/05 06:03:39;;;;;;;8.77;6.83;;;8.70;99.90;;;;;;5048615;28;20201;-71
2022/11/05 06:06:08;;;;;;;8.97;6.57;;;8.70;99.90;;;;;;5033728;28;20284;-74
2022/11/05 06:08:34;;;;;;;8.30;6.60;;;8.60;99.90;;;;;;5044016;28;20178;-72
2022/11/05 06:11:00;;;;;;;8.97;6.83;;;8.60;99.90;;;;;;5066093;28;20169;-74
2022/11/05 06:13:26;;;;;;;8.90;6.67;;;8.60;99.90;;;;;;5066294;28;20284;-77
2022/11/05 06:15:58;;;;;;;10.00;6.97;;;8.50;99.90;;;;;;5032191;28;20178;-74
2022/11/05 06:18:25;;;;;;;9.10;6.67;;;8.60;99.90;;;;;;5059576;28;20248;-74
2022/11/05 06:20:51;;;;;;;8.10;6.27;;;8.50;99.90;;;;;;5030238;28;20171;-74
2022/11/05 06:23:17;;;;;;;8.73;6.63;;;8.50;99.90;;;;;;5049399;28;20239;-73
2022/11/05 06:25:42;;;;;;;9.37;6.87;;;8.50;99.90;;;;;;5046624;28;20284;-74
2022/11/05 06:28:08;;;;;;;7.43;6.47;;;8.50;99.90;;;;;;5032009;28;20174;-74
2022/11/05 06:30:36;;;;;;;8.57;6.37;;;8.40;99.90;;;;;;5028524;28;20194;-74
2022/11/05 06:33:03;;;;;;;8.40;6.60;;;8.50;99.90;;;;;;5037943;28;20225;-75
2022/11/05 06:35:31;;;;;;;8.07;6.37;;;8.40;99.90;;;;;;5016389;28;20268;-74
2022/11/05 06:38:03;;;;;;;8.70;6.13;;;8.40;99.90;;;;;;5035420;28;20233;-73
2022/11/05 06:40:28;;;;;;;10.50;6.53;;;8.40;99.90;;;;;;5057509;28;20178;-74
2022/11/05 06:42:57;;;;;;;7.23;5.63;;;8.30;99.90;;;;;;5046274;28;20205;-74
2022/11/05 06:45:22;;;;;;;8.27;5.60;;;8.30;99.90;;;;;;5030648;28;20201;-76
2022/11/05 06:47:57;;;;;;;7.53;5.80;;;8.30;99.90;;;;;;5042005;28;20192;-73
2022/11/05 06:50:23;;;;;;;7.60;5.63;;;8.30;99.90;;;;;;5036745;28;20192;-75
2022/11/05 06:52:56;;;;;;;9.77;5.73;;;8.20;99.90;;;;;;5023976;28;20193;-76
2022/11/05 06:55:22;;;;;;;8.47;6.13;;;8.30;99.90;;;;;;5041138;28;20479;-75
2022/11/05 06:57:49;;;;;;;8.23;5.43;;;8.30;99.90;;;;;;5058196;28;20201;-78
2022/11/05 07:00:18;;;;;;;11.10;8.23;;;8.30;99.90;;;;;;5037895;28;20193;-75
2022/11/05 07:02:46;;;;;;;7.27;5.93;;;8.30;99.90;;;;;;5015694;28;20457;-75
2022/11/05 07:05:15;;;;;;;8.30;5.90;;;8.30;99.90;;;;;;5050588;28;20196;-75
2022/11/05 07:07:46;;;;;;;8.87;6.03;;;8.30;99.90;;;;;;5043103;28;20203;-75
2022/11/05 07:10:15;;;;;;;7.13;5.67;;;8.30;99.90;;;;;;5022562;28;20205;-75
2022/11/05 07:12:41;;;;;;;6.93;5.37;;;8.30;99.90;;;;;;5055372;28;20182;-73
2022/11/05 07:15:08;;;;;;;7.00;5.10;;;8.30;99.90;;;;;;5030700;28;20217;-75
2022/11/05 07:17:33;;;;;;;7.10;5.00;;;8.30;99.90;;;;;;5029812;28;20439;-74
2022/11/05 07:20:02;;;;;;;7.13;5.50;;;8.30;99.90;;;;;;5034032;28;20254;-75
2022/11/05 07:22:28;;;;;;;5.73;4.87;;;8.30;99.90;;;;;;5033082;28;20211;-75
2022/11/05 07:24:53;;;;;;;5.40;4.47;;;8.30;99.90;;;;;;5025766;28;20232;-73
2022/11/05 07:27:19;;;;;;;11.83;8.43;;;8.30;99.90;;;;;;5015863;28;20204;-76
2022/11/05 07:29:47;;;;;;;8.50;6.30;;;8.30;99.90;;;;;;5031677;28;20213;-75
2022/11/05 07:32:13;;;;;;;6.60;5.57;;;8.30;99.90;;;;;;5042976;28;20187;-75
2022/11/05 07:34:38;;;;;;;9.33;6.07;;;8.30;99.90;;;;;;5052233;28;20212;-76
2022/11/05 07:37:06;;;;;;;7.03;5.20;;;8.40;99.90;;;;;;5024456;28;20186;-76
2022/11/05 07:39:32;;;;;;;6.07;5.33;;;8.40;99.90;;;;;;5031739;28;20187;-76
2022/11/05 07:41:57;;;;;;;7.13;5.53;;;8.40;99.90;;;;;;5025704;28;20268;-77
2022/11/05 07:44:23;;;;;;;6.30;4.70;;;8.50;99.90;;;;;;5035623;28;20244;-75
2022/11/05 07:46:51;;;;;;;6.70;5.17;;;8.50;99.90;;;;;;5020868;28;20177;-75
2022/11/05 07:49:19;;;;;;;6.73;4.90;;;8.50;99.90;;;;;;5023535;28;20241;-75
2022/11/05 07:51:45;;;;;;;5.90;4.43;;;8.60;99.90;;;;;;5025849;28;20277;-74
2022/11/05 07:54:11;;;;;;;5.93;4.60;;;8.60;99.90;;;;;;5032085;28;20264;-74
2022/11/05 07:56:39;;;;;;;6.10;4.23;;;8.70;99.90;;;;;;5028119;28;20228;-75
2022/11/05 07:59:04;;;;;;;4.97;4.10;;;8.70;99.90;;;;;;5045406;28;20209;-74
2022/11/05 08:01:30;;;;;;;5.23;4.30;;;8.70;99.90;;;;;;5060733;28;20237;-76
2022/11/05 08:03:58;;;;;;;6.27;4.70;;;8.70;99.90;;;;;;5033754;28;20193;-75
2022/11/05 08:06:24;;;;;;;6.30;4.73;;;8.80;99.90;;;;;;5034816;28;20253;-75
2022/11/05 08:08:49;;;;;;;7.10;5.27;;;8.80;99.90;;;;;;5030768;28;20301;-74
2022/11/05 08:11:17;;;;;;;7.00;5.40;;;8.90;99.90;;;;;;5032689;28;20231;-77
2022/11/05 08:13:43;;;;;;;8.23;5.57;;;8.90;99.90;;;;;;5032216;28;20213;-76
2022/11/05 08:16:09;;;;;;;7.03;5.07;;;9.10;99.90;;;;;;5039745;28;20200;-78
2022/11/05 08:18:35;;;;;;;8.97;5.00;;;9.10;99.90;;;;;;5034766;28;20224;-78
2022/11/05 08:21:03;;;;;;;5.10;4.40;;;9.10;99.90;;;;;;5041265;28;20193;-78
2022/11/05 08:23:30;;;;;;;7.27;4.77;;;9.10;99.90;;;;;;5054638;28;20229;-72
2022/11/05 08:25:56;;;;;;;6.37;4.77;;;9.20;99.90;;;;;;5029830;28;20189;-74
2022/11/05 08:28:26;;;;;;;6.40;4.77;;;9.30;99.90;;;;;;5030687;28;20236;-75
2022/11/05 08:30:55;;;;;;;6.03;4.13;;;9.30;99.90;;;;;;5040549;28;20272;-75
2022/11/05 08:33:23;;;;;;;7.03;4.03;;;9.40;99.90;;;;;;5034606;28;20279;-75
2022/11/05 08:35:51;;;;;;;6.87;4.30;;;9.40;99.90;;;;;;5033020;28;20179;-75
2022/11/05 08:38:19;;;;;;;7.07;4.67;;;9.60;99.90;;;;;;5020237;28;20265;-77
2022/11/05 08:40:55;;;;;;;4.83;4.20;;;9.70;99.90;;;;;;5036821;28;20202;-78
2022/11/05 08:43:21;;;;;;;6.27;4.07;;;9.80;99.90;;;;;;5064831;28;20201;-76
2022/11/05 08:45:46;;;;;;;5.73;4.07;;;10.00;99.90;;;;;;5052627;28;20185;-76
2022/11/05 08:48:19;;;;;;;5.37;4.20;;;10.10;99.90;;;;;;5046833;28;20205;-76
2022/11/05 08:50:47;;;;;;;5.40;3.33;;;10.30;99.90;;;;;;5032436;28;20192;-75
2022/11/05 08:53:15;;;;;;;4.90;3.37;;;10.60;99.90;;;;;;5042115;28;20177;-76
2022/11/05 08:55:42;;;;;;;6.13;3.87;;;10.60;99.90;;;;;;5045459;28;20544;-77
2022/11/05 08:58:16;;;;;;;4.10;3.60;;;11.00;99.90;;;;;;5054888;28;20181;-74
2022/11/05 09:00:46;;;;;;;4.93;3.40;;;11.50;99.90;;;;;;5043017;28;20202;-74
2022/11/05 09:03:12;;;;;;;5.57;3.70;;;12.00;99.90;;;;;;5038039;28;20201;-76
2022/11/05 09:05:39;;;;;;;5.38;3.40;;;12.60;99.90;;;;;;5062652;28;20240;-75
2022/11/05 09:08:09;;;;;;;4.50;3.75;;;13.20;99.90;;;;;;5041831;28;20269;-75
2022/11/05 09:10:38;;;;;;;5.70;3.35;;;13.70;99.90;;;;;;5041427;28;20186;-77
2022/11/05 09:13:05;;;;;;;6.18;3.47;;;14.10;99.90;;;;;;5024597;28;20182;-76
2022/11/05 09:15:34;;;;;;;3.78;3.38;;;14.40;99.90;;;;;;5036194;28;20178;-78
2022/11/05 09:18:04;;;;;;;6.32;3.72;;;14.70;99.90;;;;;;5026449;28;20260;-75
2022/11/05 09:20:30;;;;;;;4.88;3.30;;;14.90;99.90;;;;;;5034625;28;20815;-76
2022/11/05 09:22:58;;;;;;;6.00;3.42;;;15.10;99.90;;;;;;5023946;28;20198;-75
2022/11/05 09:25:24;;;;;;;3.78;3.20;;;15.30;99.90;;;;;;5041688;28;20217;-75
2022/11/05 09:27:54;;;;;;;4.65;2.90;;;15.50;99.90;;;;;;5034421;28;20198;-76
2022/11/05 09:30:22;;;;;;;4.55;3.28;;;15.60;99.90;;;;;;5034650;28;20166;-75
2022/11/05 09:32:48;;;;;;;4.70;2.90;;;15.60;99.90;;;;;;5036536;28;20177;-75
2022/11/05 09:35:14;;;;;;;3.83;2.67;;;15.70;99.90;;;;;;5033408;28;20178;-76
2022/11/05 09:37:39;;;;;;;3.83;2.65;;;15.60;99.90;;;;;;5046737;28;20174;-77
2022/11/05 09:40:06;;;;;;;3.78;2.92;;;15.50;99.90;;;;;;5045999;28;20241;-76
2022/11/05 09:42:39;;;;;;;4.07;3.00;;;15.40;99.90;;;;;;5025279;28;20205;-75
2022/11/05 09:45:15;;;;;;;3.58;2.92;;;15.30;99.90;;;;;;5033648;28;20205;-76
2022/11/05 09:47:45;;;;;;;4.38;2.85;;;15.30;99.90;;;;;;5031244;28;20204;-75
2022/11/05 09:50:21;;;;;;;3.63;2.50;;;15.30;99.90;;;;;;5037659;28;20198;-76
2022/11/05 09:52:47;;;;;;;4.28;3.08;;;15.20;99.90;;;;;;5019162;28;20265;-76
2022/11/05 09:55:27;;;;;;;5.03;2.97;;;15.20;99.90;;;;;;5021227;28;20290;-77
2022/11/05 09:57:58;;;;;;;4.47;3.08;;;15.10;99.90;;;;;;5033100;28;20171;-75
2022/11/05 10:00:24;;;;;;;5.05;3.03;;;15.10;99.90;;;;;;5017253;28;20167;-75
2022/11/05 10:03:01;;;;;;;3.03;2.65;;;15.10;99.90;;;;;;5020791;28;20225;-78
2022/11/05 10:05:28;;;;;;;4.10;2.53;;;15.10;99.90;;;;;;5029860;28;20185;-75
2022/11/05 10:08:11;;;;;;;4.38;2.50;;;15.10;99.90;;;;;;5033213;28;20350;-75
2022/11/05 10:10:51;;;;;;;3.15;2.40;;;15.10;99.90;;;;;;5047264;28;20202;-75
2022/11/05 10:13:36;;;;;;;4.47;2.92;;;15.10;99.90;;;;;;5051782;28;20215;-75
2022/11/05 10:16:20;;;;;;;4.05;2.28;;;15.10;99.90;;;;;;5041484;28;20265;-75
2022/11/05 10:18:51;;;;;;;4.75;2.42;;;15.10;99.90;;;;;;5035579;28;20229;-77
2022/11/05 10:21:18;;;;;;;6.13;2.70;;;15.10;99.90;;;;;;5017838;28;20190;-75
2022/11/05 10:23:45;;;;;;;4.05;2.10;;;15.00;99.90;;;;;;5026682;28;20293;-75
2022/11/05 10:26:19;;;;;;;4.65;2.65;;;15.00;99.90;;;;;;5033983;28;20203;-76
2022/11/05 10:28:48;;;;;;;4.00;2.90;;;15.00;99.90;;;;;;5035574;28;20197;-76
2022/11/05 10:31:20;;;;;;;4.68;2.63;;;15.20;99.90;;;;;;5033772;28;20228;-78
2022/11/05 10:34:02;;;;;;;3.45;2.30;;;15.20;99.90;;;;;;5031445;28;20197;-77
2022/11/05 10:36:31;;;;;;;3.90;2.35;;;15.20;99.90;;;;;;5029296;28;20255;-78
2022/11/05 10:39:09;;;;;;;4.90;2.58;;;15.20;99.90;;;;;;5036201;28;20221;-78
2022/11/05 10:42:23;;;;;;;6.47;2.58;;;15.20;99.90;;;;;;5035635;28;20192;-77
2022/11/05 10:45:22;;;;;;;3.70;2.45;;;15.10;99.90;;;;;;5033102;28;20174;-78
2022/11/05 10:48:13;;;;;;;4.40;2.38;;;15.10;99.90;;;;;;5016174;28;20174;-77
2022/11/05 10:50:40;;;;;;;4.72;2.35;;;15.10;99.90;;;;;;5006650;28;20182;-77
2022/11/05 10:53:17;;;;;;;3.95;1.92;;;15.10;99.90;;;;;;5029620;28;20217;-77
2022/11/05 10:55:47;;;;;;;4.85;2.20;;;15.00;99.90;;;;;;5034991;28;20220;-76
2022/11/05 10:58:12;;;;;;;3.45;2.10;;;14.90;99.90;;;;;;5035948;28;20174;-77
2022/11/05 11:00:39;;;;;;;4.00;2.20;;;14.80;99.90;;;;;;5019133;28;20240;-78
2022/11/05 11:03:27;;;;;;;2.42;1.70;;;14.70;99.90;;;;;;5023243;28;20268;-76
2022/11/05 11:06:04;;;;;;;2.63;1.80;;;14.70;99.90;;;;;;5034596;28;20174;-75
2022/11/05 11:08:32;;;;;;;2.75;1.90;;;14.60;99.90;;;;;;5035890;28;20208;-77
2022/11/05 11:11:04;;;;;;;3.03;2.10;;;14.60;99.90;;;;;;5053639;28;20184;-76
2022/11/05 11:13:51;;;;;;;4.00;1.92;;;14.60;99.90;;;;;;5062720;28;20199;-77
2022/11/05 11:16:23;;;;;;;2.80;1.98;;;14.60;99.90;;;;;;5030198;28;20186;-78
2022/11/05 11:18:55;;;;;;;3.80;2.00;;;14.60;99.90;;;;;;5034169;28;20205;-77
2022/11/05 11:21:25;;;;;;;3.17;2.00;;;14.70;99.90;;;;;;5051343;28;20202;-77
2022/11/05 11:24:03;;;;;;;2.75;1.63;;;14.70;99.90;;;;;;5033854;28;20285;-77
2022/11/05 11:26:37;;;;;;;3.47;1.83;;;14.80;99.90;;;;;;5018160;28;20240;-76
2022/11/05 11:29:20;;;;;;;3.17;1.83;;;14.90;99.90;;;;;;5026255;28;20177;-75
2022/11/05 11:31:49;;;;;;;3.40;1.80;;;15.00;99.90;;;;;;5049166;28;20193;-76
2022/11/05 11:34:40;;;;;;;2.92;1.42;;;15.10;99.90;;;;;;5043886;28;20177;-77
2022/11/05 11:37:23;;;;;;;3.65;1.67;;;15.20;99.90;;;;;;5035073;28;20182;-77
2022/11/05 11:40:00;;;;;;;2.85;1.20;;;15.30;99.90;;;;;;5032596;28;20196;-76
2022/11/05 11:42:34;;;;;;;2.55;1.55;;;15.30;99.90;;;;;;5031682;28;20300;-76
2022/11/05 11:45:27;;;;;;;1.55;1.20;;;15.20;99.90;;;;;;5042510;28;20185;-77
2022/11/05 11:47:55;;;;;;;3.20;1.30;;;15.20;99.90;;;;;;5036594;28;20264;-78
2022/11/05 11:50:43;;;;;;;1.70;1.27;;;15.20;99.90;;;;;;5069197;28;20189;-78
2022/11/05 11:53:15;;;;;;;2.47;1.45;;;15.20;99.90;;;;;;5030947;28;20182;-78
2022/11/05 11:55:54;;;;;;;2.70;1.52;;;15.20;99.90;;;;;;5044556;28;20187;-78
2022/11/05 11:58:36;;;;;;;2.15;1.40;;;15.20;99.90;;;;;;5055170;28;20182;-79
2022/11/05 12:01:24;;;;;;;2.35;1.70;;;15.20;99.90;;;;;;5032859;28;20229;-78
2022/11/05 12:04:18;;;;;;;2.03;1.40;;;15.20;99.90;;;;;;5034716;28;20209;-79
2022/11/05 12:06:49;;;;;;;2.72;1.60;;;15.20;99.90;;;;;;5015248;28;20187;-80
2022/11/05 12:09:20;;;;;;;3.70;1.40;;;15.10;99.90;;;;;;5034378;28;20264;-78
2022/11/05 12:11:52;;;;;;;3.25;1.50;;;15.10;99.90;;;;;;5050711;28;20292;-78
2022/11/05 12:14:37;;;;;;;2.75;1.50;;;15.10;99.90;;;;;;5037862;28;20179;-80
2022/11/05 12:17:26;;;;;;;4.28;1.48;;;15.00;99.90;;;;;;5017232;28;20441;-77
2022/11/05 12:20:04;;;;;;;3.15;1.52;;;14.90;99.90;;;;;;5048411;28;20219;-78
2022/11/05 12:23:01;;;;;;;3.97;1.50;;;14.90;99.90;;;;;;5014679;28;20198;-79
2022/11/05 12:25:59;;;;;;;2.78;1.50;;;14.80;99.90;;;;;;5050292;28;20233;-79
2022/11/05 12:28:38;;;;;;;2.38;1.52;;;14.80;99.90;;;;;;5030322;28;20182;-78
2022/11/05 12:31:25;;;;;;;2.40;1.60;;;14.80;99.90;;;;;;5047531;28;20177;-80
2022/11/05 12:34:06;;;;;;;2.47;1.52;;;14.80;99.90;;;;;;5024544;28;20313;-80
2022/11/05 12:36:46;;;;;;;2.72;1.50;;;14.70;99.90;;;;;;5021764;28;20188;-79
2022/11/05 12:39:42;;;;;;;1.63;1.10;;;14.60;99.90;;;;;;5033310;28;20194;-77
2022/11/05 12:42:43;;;;;;;1.80;1.27;;;14.60;99.90;;;;;;5036599;28;20201;-73
2022/11/05 12:45:28;;;;;;;4.35;1.30;;;14.50;99.90;;;;;;5018666;28;20185;-72
2022/11/05 12:48:24;;;;;;;4.75;1.83;;;14.50;99.90;;;;;;5023173;28;20197;-73
2022/11/05 12:51:16;;;;;;;2.63;1.50;;;14.40;99.90;;;;;;5027101;28;20169;-75
2022/11/05 12:54:06;;;;;;;1.73;1.20;;;14.30;99.90;;;;;;5034350;28;20683;-74
2022/11/05 12:56:45;;;;;;;6.05;1.45;;;14.30;99.90;;;;;;5036282;28;20229;-73
2022/11/05 12:59:23;;;;;;;2.50;1.30;;;14.20;99.90;;;;;;5036961;28;20189;-75
2022/11/05 13:02:01;;;;;;;1.98;1.38;;;14.20;99.90;;;;;;5037670;28;20194;-74
2022/11/05 13:04:58;;;;;;;3.35;1.73;;;14.10;99.90;;;;;;5026700;28;20237;-74
2022/11/05 13:07:39;;;;;;;2.58;1.52;;;14.10;99.90;;;;;;5036604;28;20204;-74
2022/11/05 13:10:18;;;;;;;2.63;1.40;;;14.10;99.90;;;;;;5032157;28;20182;-73
2022/11/05 13:12:50;;;;;;;2.53;1.38;;;14.00;99.90;;;;;;5022195;28;20232;-75
2022/11/05 13:15:26;;;;;;;2.25;1.50;;;14.00;99.90;;;;;;5042061;28;20187;-72
2022/11/05 13:18:12;;;;;;;3.42;1.80;;;14.00;99.90;;;;;;5035324;28;20234;-71
2022/11/05 13:20:42;;;;;;;2.30;1.80;;;14.00;99.90;;;;;;5037304;28;20217;-73
2022/11/05 13:23:23;;;;;;;2.08;1.70;;;14.00;99.90;;;;;;5039741;28;20223;-74
2022/11/05 13:25:53;;;;;;;2.25;1.63;;;14.00;99.90;;;;;;5036245;28;20193;-72
2022/11/05 13:28:47;;;;;;;2.45;1.50;;;14.00;99.90;;;;;;5022885;28;20185;-76
2022/11/05 13:31:20;;;;;;;2.65;1.90;;;14.00;99.90;;;;;;5054021;28;20252;-72
2022/11/05 13:33:49;;;;;;;2.28;1.50;;;14.00;99.90;;;;;;5059436;28;20217;-72
2022/11/05 13:39:23;;;;;;;2.28;1.65;;;14.00;99.90;;;;;;5042403;28;20348;-75
2022/11/05 13:42:14;;;;;;;1.92;1.50;;;14.00;99.90;;;;;;5047318;28;20199;-76
2022/11/05 13:45:05;;;;;;;2.88;1.90;;;14.00;99.90;;;;;;5030526;28;20758;-75
2022/11/05 13:47:40;;;;;;;3.03;1.70;;;14.00;99.90;;;;;;5029625;28;20174;-75
2022/11/05 13:50:24;;;;;;;2.42;1.73;;;14.10;99.90;;;;;;5023715;28;20184;-75
2022/11/05 13:53:02;;;;;;;5.38;1.90;;;14.10;99.90;;;;;;5021191;28;20233;-72
2022/11/05 13:55:48;;;;;;;4.03;2.08;;;14.10;99.90;;;;;;5048483;28;20182;-72
2022/11/05 13:58:33;;;;;;;3.08;1.80;;;14.10;99.90;;;;;;5049291;28;20174;-73
2022/11/05 14:01:01;;;;;;;2.70;1.73;;;14.10;99.90;;;;;;5047656;28;20255;-74
2022/11/05 14:03:27;;;;;;;3.15;1.63;;;14.10;99.90;;;;;;5063593;28;20189;-74